createdAt,value
2018-07-15T00:00:22.653Z,7.40
2018-07-15T00:01:22.644Z,7.60
2018-07-15T00:02:22.588Z,7.10
2018-07-15T00:03:22.654Z,7.10
2018-07-15T00:04:22.611Z,8.30
2018-07-15T00:05:22.603Z,7.90
2018-07-15T00:06:22.599Z,7.70
2018-07-15T00:07:22.578Z,7.70
2018-07-15T00:08:22.602Z,7.50
2018-07-15T00:09:22.571Z,7.60
2018-07-15T00:10:22.549Z,7.50
2018-07-15T00:11:22.539Z,7.40
2018-07-15T00:12:22.531Z,7.60
2018-07-15T00:13:22.556Z,8.40
2018-07-15T00:14:22.466Z,8.10
2018-07-15T00:15:22.456Z,7.50
2018-07-15T00:16:22.489Z,7.80
2018-07-15T00:17:22.437Z,8.00
2018-07-15T00:18:22.492Z,8.20
2018-07-15T00:19:22.415Z,8.10
2018-07-15T00:20:22.448Z,9.00
2018-07-15T00:21:22.431Z,8.50
2018-07-15T00:22:22.421Z,8.30
2018-07-15T00:23:22.518Z,8.00
2018-07-15T00:24:22.399Z,8.20
2018-07-15T00:25:22.479Z,7.80
2018-07-15T00:26:58.154Z,8.10
2018-07-15T00:27:22.370Z,8.80
2018-07-15T00:28:22.389Z,8.30
2018-07-15T00:29:22.378Z,8.50
2018-07-15T00:30:22.334Z,8.60
2018-07-15T00:31:22.331Z,8.10
2018-07-15T00:32:22.318Z,8.10
2018-07-15T00:33:22.311Z,8.20
2018-07-15T00:34:22.322Z,8.90
2018-07-15T00:35:22.286Z,8.30
2018-07-15T00:36:22.270Z,8.30
2018-07-15T00:37:22.258Z,8.60
2018-07-15T00:38:22.256Z,8.90
2018-07-15T00:39:22.264Z,9.10
2018-07-15T00:40:22.226Z,8.50
2018-07-15T00:41:22.218Z,8.90
2018-07-15T00:42:22.203Z,9.20
2018-07-15T00:43:22.197Z,9.20
2018-07-15T00:44:22.209Z,8.50
2018-07-15T00:45:22.170Z,8.00
2018-07-15T00:46:22.163Z,9.10
2018-07-15T00:47:22.157Z,8.30
2018-07-15T00:48:22.139Z,9.00
2018-07-15T00:49:22.151Z,9.30
2018-07-15T00:50:22.075Z,8.60
2018-07-15T00:51:22.104Z,8.80
2018-07-15T00:52:22.096Z,8.70
2018-07-15T00:53:22.083Z,8.90
2018-07-15T00:54:22.106Z,9.40
2018-07-15T00:55:22.143Z,9.60
2018-07-15T00:56:22.049Z,8.90
2018-07-15T00:57:22.042Z,9.10
2018-07-15T00:58:22.029Z,8.90
2018-07-15T00:59:22.045Z,9.10
2018-07-15T01:00:22.023Z,8.80
2018-07-15T01:01:21.994Z,9.40
2018-07-15T01:02:21.987Z,9.10
2018-07-15T01:03:21.929Z,8.90
2018-07-15T01:04:21.988Z,9.10
2018-07-15T01:05:21.915Z,9.20
2018-07-15T01:06:21.942Z,9.10
2018-07-15T01:07:21.933Z,9.50
2018-07-15T01:08:21.923Z,8.90
2018-07-15T01:09:21.936Z,9.50
2018-07-15T01:10:21.904Z,9.40
2018-07-15T01:11:21.888Z,9.30
2018-07-15T01:12:21.875Z,9.10
2018-07-15T01:13:21.866Z,9.60
2018-07-15T01:14:21.880Z,9.50
2018-07-15T01:15:21.849Z,9.40
2018-07-15T01:16:21.830Z,9.80
2018-07-15T01:17:21.776Z,9.80
2018-07-15T01:18:21.769Z,9.40
2018-07-15T01:19:21.825Z,9.30
2018-07-15T01:20:21.795Z,9.20
2018-07-15T01:21:21.776Z,9.40
2018-07-15T01:22:21.725Z,10.00
2018-07-15T01:23:21.751Z,9.90
2018-07-15T01:24:22.017Z,9.70
2018-07-15T01:25:21.731Z,9.60
2018-07-15T01:26:21.722Z,9.80
2018-07-15T01:27:21.712Z,9.40
2018-07-15T01:28:21.748Z,9.90
2018-07-15T01:29:21.722Z,9.90
2018-07-15T01:30:21.674Z,9.60
2018-07-15T01:31:21.665Z,9.30
2018-07-15T01:32:21.658Z,9.70
2018-07-15T01:33:21.645Z,9.70
2018-07-15T01:34:21.684Z,9.20
2018-07-15T01:35:21.619Z,9.40
2018-07-15T01:36:21.613Z,9.90
2018-07-15T01:37:21.604Z,9.70
2018-07-15T01:38:21.591Z,9.30
2018-07-15T01:39:21.610Z,9.30
2018-07-15T01:40:21.525Z,9.00
2018-07-15T01:41:21.565Z,9.50
2018-07-15T01:42:21.515Z,8.80
2018-07-15T01:43:21.536Z,8.70
2018-07-15T01:44:21.545Z,8.90
2018-07-15T01:45:21.469Z,9.10
2018-07-15T01:46:21.507Z,8.50
2018-07-15T01:47:21.496Z,9.10
2018-07-15T01:48:21.481Z,9.20
2018-07-15T01:49:21.487Z,9.10
2018-07-15T01:50:21.462Z,9.30
2018-07-15T01:51:21.446Z,9.00
2018-07-15T01:52:21.404Z,8.70
2018-07-15T01:53:21.430Z,9.10
2018-07-15T01:54:21.439Z,9.30
2018-07-15T01:55:21.404Z,9.40
2018-07-15T01:56:21.401Z,9.30
2018-07-15T01:57:21.381Z,8.80
2018-07-15T01:58:21.371Z,9.00
2018-07-15T01:59:21.388Z,8.90
2018-07-15T02:00:21.351Z,8.90
2018-07-15T02:01:21.349Z,9.20
2018-07-15T02:02:21.342Z,9.10
2018-07-15T02:03:21.313Z,9.10
2018-07-15T02:04:21.329Z,9.30
2018-07-15T02:05:21.288Z,9.60
2018-07-15T02:06:21.278Z,8.90
2018-07-15T02:07:21.278Z,9.50
2018-07-15T02:08:21.269Z,9.60
2018-07-15T02:09:21.275Z,9.70
2018-07-15T02:10:21.240Z,9.20
2018-07-15T02:11:21.227Z,9.10
2018-07-15T02:12:21.211Z,9.30
2018-07-15T02:13:21.163Z,9.20
2018-07-15T02:14:21.230Z,9.60
2018-07-15T02:15:21.151Z,8.90
2018-07-15T02:16:21.173Z,9.40
2018-07-15T02:17:21.163Z,9.20
2018-07-15T02:18:21.150Z,9.90
2018-07-15T02:19:21.320Z,9.20
2018-07-15T02:20:21.125Z,9.30
2018-07-15T02:21:21.084Z,9.50
2018-07-15T02:22:21.108Z,8.80
2018-07-15T02:23:21.092Z,9.20
2018-07-15T02:24:21.080Z,8.80
2018-07-15T02:25:21.182Z,9.20
2018-07-15T02:26:21.083Z,9.80
2018-07-15T02:27:21.058Z,9.90
2018-07-15T02:28:21.041Z,9.40
2018-07-15T02:29:21.032Z,8.90
2018-07-15T02:30:21.045Z,9.00
2018-07-15T02:31:21.010Z,9.00
2018-07-15T02:32:20.997Z,9.30
2018-07-15T02:33:20.987Z,9.30
2018-07-15T02:34:20.975Z,9.20
2018-07-15T02:35:20.987Z,8.80
2018-07-15T02:36:20.907Z,9.20
2018-07-15T02:37:20.937Z,9.10
2018-07-15T02:38:20.927Z,8.70
2018-07-15T02:39:20.921Z,8.90
2018-07-15T02:40:53.250Z,8.80
2018-07-15T02:41:20.897Z,8.70
2018-07-15T02:42:20.894Z,8.40
2018-07-15T02:43:20.875Z,8.50
2018-07-15T02:44:20.859Z,8.30
2018-07-15T02:45:20.855Z,8.50
2018-07-15T02:46:20.865Z,8.80
2018-07-15T02:47:20.827Z,8.80
2018-07-15T02:48:20.824Z,8.50
2018-07-15T02:49:20.808Z,9.30
2018-07-15T02:50:20.827Z,8.70
2018-07-15T02:51:20.739Z,8.80
2018-07-15T02:52:20.735Z,9.00
2018-07-15T02:53:20.767Z,8.70
2018-07-15T02:54:20.751Z,8.50
2018-07-15T02:55:20.761Z,8.30
2018-07-15T02:56:20.736Z,8.40
2018-07-15T02:57:20.722Z,8.40
2018-07-15T02:58:20.707Z,9.30
2018-07-15T02:59:20.655Z,9.30
2018-07-15T03:00:20.710Z,9.00
2018-07-15T03:01:20.675Z,8.90
2018-07-15T03:02:20.662Z,8.90
2018-07-15T03:03:20.611Z,8.40
2018-07-15T03:04:20.647Z,8.60
2018-07-15T03:05:20.653Z,8.50
2018-07-15T03:06:20.624Z,8.60
2018-07-15T03:07:20.608Z,9.10
2018-07-15T03:08:20.595Z,8.50
2018-07-15T03:09:20.589Z,8.80
2018-07-15T03:10:20.595Z,8.50
2018-07-15T03:11:20.567Z,9.10
2018-07-15T03:12:20.509Z,8.30
2018-07-15T03:13:20.538Z,8.90
2018-07-15T03:14:20.538Z,8.70
2018-07-15T03:15:20.567Z,8.90
2018-07-15T03:16:20.513Z,8.80
2018-07-15T03:17:20.584Z,8.90
2018-07-15T03:18:20.561Z,8.50
2018-07-15T03:19:20.474Z,9.30
2018-07-15T03:20:20.561Z,9.00
2018-07-15T03:21:20.452Z,8.80
2018-07-15T03:22:20.449Z,8.40
2018-07-15T03:23:20.433Z,9.00
2018-07-15T03:24:20.429Z,8.80
2018-07-15T03:25:20.442Z,9.40
2018-07-15T03:26:20.397Z,9.00
2018-07-15T03:27:20.383Z,9.40
2018-07-15T03:28:20.377Z,9.20
2018-07-15T03:29:20.364Z,9.40
2018-07-15T03:30:20.428Z,8.80
2018-07-15T03:31:20.335Z,8.60
2018-07-15T03:32:20.330Z,8.90
2018-07-15T03:33:20.319Z,8.80
2018-07-15T03:34:20.307Z,8.80
2018-07-15T03:35:20.297Z,8.50
2018-07-15T03:36:20.307Z,8.80
2018-07-15T03:37:20.271Z,8.80
2018-07-15T03:38:20.270Z,9.00
2018-07-15T03:39:20.252Z,9.00
2018-07-15T03:40:20.242Z,9.10
2018-07-15T03:41:20.274Z,9.10
2018-07-15T03:42:20.176Z,9.10
2018-07-15T03:43:20.207Z,9.10
2018-07-15T03:44:20.194Z,9.40
2018-07-15T03:45:20.183Z,9.10
2018-07-15T03:46:20.207Z,9.70
2018-07-15T03:47:20.163Z,9.20
2018-07-15T03:48:20.154Z,8.90
2018-07-15T03:49:20.096Z,8.90
2018-07-15T03:50:20.132Z,8.50
2018-07-15T03:51:20.187Z,8.80
2018-07-15T03:52:20.109Z,8.80
2018-07-15T03:53:20.096Z,8.60
2018-07-15T03:54:20.084Z,8.40
2018-07-15T03:55:20.074Z,8.90
2018-07-15T03:56:20.045Z,8.70
2018-07-15T03:57:20.049Z,9.20
2018-07-15T03:58:20.036Z,8.80
2018-07-15T03:59:20.030Z,8.70
2018-07-15T04:00:20.022Z,8.20
2018-07-15T04:01:20.030Z,8.80
2018-07-15T04:02:19.993Z,8.50
2018-07-15T04:03:19.981Z,8.90
2018-07-15T04:04:19.974Z,8.60
2018-07-15T04:05:19.962Z,8.10
2018-07-15T04:06:41.706Z,8.70
2018-07-15T04:08:49.677Z,8.70
2018-07-15T04:09:29.388Z,8.10
2018-07-15T04:10:28.628Z,8.40
2018-07-15T04:11:33.953Z,8.60
2018-07-15T04:12:28.605Z,8.60
2018-07-15T04:13:28.598Z,8.80
2018-07-15T04:14:28.586Z,8.70
2018-07-15T04:25:18.979Z,7.80
2018-07-15T04:26:03.519Z,8.20
2018-07-15T04:27:03.484Z,8.60
2018-07-15T04:28:03.479Z,8.30
2018-07-15T04:29:03.461Z,8.80
2018-07-15T04:30:03.452Z,8.50
2018-07-15T04:31:03.471Z,8.30
2018-07-15T04:32:03.436Z,8.60
2018-07-15T04:33:03.423Z,8.10
2018-07-15T04:34:03.414Z,8.80
2018-07-15T04:35:03.407Z,8.10
2018-07-15T04:36:03.416Z,8.40
2018-07-15T04:37:03.381Z,7.80
2018-07-15T04:38:03.504Z,8.50
2018-07-15T04:39:03.359Z,8.20
2018-07-15T04:40:03.303Z,8.90
2018-07-15T04:41:03.311Z,7.90
2018-07-15T04:42:03.321Z,7.90
2018-07-15T04:43:03.321Z,8.10
2018-07-15T04:44:03.260Z,8.40
2018-07-15T04:45:03.289Z,9.30
2018-07-15T04:46:03.280Z,8.40
2018-07-15T04:47:03.295Z,8.30
2018-07-15T04:48:03.257Z,8.40
2018-07-15T04:49:03.248Z,8.90
2018-07-15T04:50:03.201Z,8.20
2018-07-15T04:51:03.228Z,8.70
2018-07-15T04:52:03.240Z,8.20
2018-07-15T04:53:03.206Z,8.50
2018-07-15T04:54:03.193Z,7.80
2018-07-15T04:55:03.188Z,7.90
2018-07-15T04:56:03.193Z,8.30
2018-07-15T04:57:03.187Z,8.50
2018-07-15T04:58:03.152Z,7.80
2018-07-15T04:59:03.146Z,7.80
2018-07-15T05:00:03.136Z,7.80
2018-07-15T05:01:03.081Z,8.00
2018-07-15T05:02:03.168Z,8.40
2018-07-15T05:03:03.098Z,8.10
2018-07-15T05:04:03.101Z,8.60
2018-07-15T05:05:03.081Z,8.50
2018-07-15T05:06:03.069Z,8.50
2018-07-15T05:07:03.082Z,8.90
2018-07-15T05:08:03.053Z,8.70
2018-07-15T05:09:03.037Z,8.70
2018-07-15T05:10:03.028Z,8.20
2018-07-15T05:11:03.017Z,8.70
2018-07-15T05:12:03.034Z,8.40
2018-07-15T05:13:02.993Z,8.70
2018-07-15T05:14:02.982Z,8.60
2018-07-15T05:15:02.971Z,8.90
2018-07-15T05:16:02.955Z,8.40
2018-07-15T05:17:02.929Z,8.40
2018-07-15T05:18:02.935Z,8.30
2018-07-15T05:19:02.957Z,9.00
2018-07-15T05:20:02.916Z,8.40
2018-07-15T05:21:02.907Z,8.60
2018-07-15T05:22:02.929Z,8.80
2018-07-15T05:23:02.887Z,8.20
2018-07-15T05:24:02.881Z,8.00
2018-07-15T05:25:02.891Z,8.10
2018-07-15T05:26:02.853Z,8.70
2018-07-15T05:27:02.827Z,8.70
2018-07-15T05:28:02.830Z,8.50
2018-07-15T05:29:02.815Z,8.60
2018-07-15T05:30:02.771Z,9.40
2018-07-15T05:31:02.800Z,8.80
2018-07-15T05:32:02.811Z,9.70
2018-07-15T05:33:02.783Z,9.10
2018-07-15T05:34:02.764Z,8.90
2018-07-15T05:35:02.799Z,9.20
2018-07-15T05:36:02.752Z,10.00
2018-07-15T05:37:02.717Z,10.00
2018-07-15T05:38:02.723Z,9.60
2018-07-15T05:39:02.678Z,9.60
2018-07-15T05:40:02.701Z,9.60
2018-07-15T05:41:02.650Z,9.80
2018-07-15T05:42:02.707Z,9.60
2018-07-15T05:43:02.671Z,9.90
2018-07-15T05:44:02.672Z,10.40
2018-07-15T05:45:02.647Z,10.40
2018-07-15T05:46:02.640Z,11.40
2018-07-15T05:47:02.653Z,12.20
2018-07-15T05:48:02.632Z,9.90
2018-07-15T05:49:02.656Z,10.90
2018-07-15T05:50:02.601Z,10.70
2018-07-15T05:51:02.584Z,11.30
2018-07-15T05:52:02.602Z,10.60
2018-07-15T05:53:02.625Z,9.80
2018-07-15T05:54:02.553Z,9.90
2018-07-15T05:55:02.542Z,9.90
2018-07-15T05:56:02.537Z,9.50
2018-07-15T05:57:02.542Z,9.40
2018-07-15T05:58:02.577Z,9.40
2018-07-15T05:59:02.497Z,9.60
2018-07-15T06:00:02.446Z,8.90
2018-07-15T06:01:02.468Z,9.90
2018-07-15T06:02:02.456Z,9.90
2018-07-15T06:03:02.450Z,10.30
2018-07-15T06:04:02.440Z,9.70
2018-07-15T06:05:02.430Z,9.70
2018-07-15T06:06:02.424Z,9.90
2018-07-15T06:07:02.434Z,10.60
2018-07-15T06:08:02.398Z,10.70
2018-07-15T06:09:02.392Z,10.40
2018-07-15T06:10:02.385Z,10.20
2018-07-15T06:11:02.373Z,10.40
2018-07-15T06:12:02.385Z,10.60
2018-07-15T06:13:02.340Z,10.20
2018-07-15T06:14:02.330Z,11.10
2018-07-15T06:15:02.321Z,10.10
2018-07-15T06:16:02.313Z,11.30
2018-07-15T06:17:02.377Z,9.70
2018-07-15T06:18:02.308Z,10.20
2018-07-15T06:19:02.286Z,10.40
2018-07-15T06:20:02.273Z,11.30
2018-07-15T06:21:02.209Z,11.00
2018-07-15T06:22:02.273Z,11.40
2018-07-15T06:23:02.238Z,10.70
2018-07-15T06:24:02.222Z,9.60
2018-07-15T06:25:02.211Z,10.60
2018-07-15T06:26:02.205Z,10.20
2018-07-15T06:27:02.221Z,11.90
2018-07-15T06:28:02.176Z,11.10
2018-07-15T06:29:02.163Z,11.80
2018-07-15T06:30:02.160Z,9.90
2018-07-15T06:31:02.196Z,10.00
2018-07-15T06:32:02.160Z,10.30
2018-07-15T06:33:02.125Z,10.60
2018-07-15T06:34:02.121Z,9.70
2018-07-15T06:35:02.102Z,9.70
2018-07-15T06:36:02.055Z,9.50
2018-07-15T06:37:02.101Z,9.30
2018-07-15T06:38:02.070Z,9.80
2018-07-15T06:39:02.062Z,9.90
2018-07-15T06:40:02.052Z,9.70
2018-07-15T06:41:02.045Z,9.80
2018-07-15T06:42:02.052Z,9.30
2018-07-15T06:43:02.041Z,9.10
2018-07-15T06:44:02.012Z,9.30
2018-07-15T06:45:01.955Z,9.00
2018-07-15T06:46:02.054Z,8.20
2018-07-15T06:47:01.978Z,8.70
2018-07-15T06:48:01.993Z,9.10
2018-07-15T06:49:01.951Z,8.80
2018-07-15T06:50:01.942Z,9.00
2018-07-15T06:51:01.932Z,8.70
2018-07-15T06:52:01.958Z,8.70
2018-07-15T06:53:01.935Z,8.90
2018-07-15T06:54:01.958Z,9.00
2018-07-15T06:55:01.894Z,8.70
2018-07-15T06:56:01.885Z,8.40
2018-07-15T06:57:01.868Z,9.00
2018-07-15T06:58:01.919Z,8.60
2018-07-15T06:59:01.856Z,9.40
2018-07-15T07:00:01.843Z,8.80
2018-07-15T07:01:01.837Z,9.40
2018-07-15T07:02:01.772Z,9.20
2018-07-15T07:03:01.791Z,9.00
2018-07-15T07:04:01.817Z,8.40
2018-07-15T07:05:01.795Z,8.90
2018-07-15T07:06:01.737Z,8.50
2018-07-15T07:07:01.773Z,7.90
2018-07-15T07:08:01.788Z,8.20
2018-07-15T07:09:01.755Z,8.10
2018-07-15T07:10:01.756Z,7.80
2018-07-15T07:11:01.689Z,8.20
2018-07-15T07:12:01.721Z,8.60
2018-07-15T07:13:01.740Z,8.30
2018-07-15T07:14:01.719Z,9.10
2018-07-15T07:15:01.695Z,8.00
2018-07-15T07:16:01.632Z,8.20
2018-07-15T07:17:01.669Z,8.80
2018-07-15T07:18:01.694Z,8.40
2018-07-15T07:19:01.657Z,8.70
2018-07-15T07:20:01.642Z,8.00
2018-07-15T07:21:01.631Z,8.10
2018-07-15T07:22:01.625Z,8.10
2018-07-15T07:23:01.638Z,7.30
2018-07-15T07:24:01.599Z,8.20
2018-07-15T07:25:01.589Z,8.40
2018-07-15T07:26:01.585Z,7.60
2018-07-15T07:27:01.592Z,8.90
2018-07-15T07:28:01.535Z,9.20
2018-07-15T07:29:01.547Z,8.40
2018-07-15T07:30:01.541Z,8.70
2018-07-15T07:31:01.534Z,8.90
2018-07-15T07:32:01.670Z,8.40
2018-07-15T07:33:01.541Z,8.30
2018-07-15T07:34:01.510Z,8.40
2018-07-15T07:35:01.448Z,8.40
2018-07-15T07:36:01.480Z,8.40
2018-07-15T07:37:01.470Z,8.20
2018-07-15T07:38:01.489Z,7.90
2018-07-15T07:39:01.413Z,8.10
2018-07-15T07:40:01.439Z,9.10
2018-07-15T07:41:01.429Z,8.30
2018-07-15T07:42:01.424Z,8.80
2018-07-15T07:43:01.432Z,8.90
2018-07-15T07:44:01.400Z,8.10
2018-07-15T07:45:01.383Z,8.80
2018-07-15T07:46:01.379Z,8.40
2018-07-15T07:47:01.402Z,8.80
2018-07-15T07:48:01.386Z,9.00
2018-07-15T07:49:01.305Z,7.90
2018-07-15T07:50:01.353Z,8.40
2018-07-15T07:51:01.343Z,8.70
2018-07-15T07:52:01.321Z,8.70
2018-07-15T07:53:09.908Z,7.70
2018-07-15T07:54:01.296Z,8.80
2018-07-15T07:55:01.287Z,7.90
2018-07-15T07:56:01.277Z,8.30
2018-07-15T07:57:01.264Z,8.90
2018-07-15T07:58:01.283Z,7.90
2018-07-15T07:59:01.251Z,7.50
2018-07-15T08:00:01.235Z,8.00
2018-07-15T08:01:01.226Z,8.50
2018-07-15T08:02:01.293Z,8.50
2018-07-15T08:03:01.235Z,8.30
2018-07-15T08:04:01.206Z,8.70
2018-07-15T08:05:01.188Z,7.90
2018-07-15T08:06:01.175Z,8.10
2018-07-15T08:07:01.175Z,8.40
2018-07-15T08:08:01.183Z,8.20
2018-07-15T08:09:01.149Z,7.80
2018-07-15T08:10:01.139Z,8.60
2018-07-15T08:11:01.129Z,8.60
2018-07-15T08:12:01.113Z,8.90
2018-07-15T08:13:01.133Z,8.30
2018-07-15T08:14:01.175Z,8.70
2018-07-15T08:15:01.083Z,8.30
2018-07-15T08:16:01.126Z,8.80
2018-07-15T08:17:01.066Z,8.20
2018-07-15T08:18:01.037Z,8.00
2018-07-15T08:19:01.052Z,8.40
2018-07-15T08:20:01.040Z,8.40
2018-07-15T08:21:01.028Z,8.10
2018-07-15T08:22:00.967Z,7.90
2018-07-15T08:23:01.034Z,7.50
2018-07-15T08:24:01.004Z,8.10
2018-07-15T08:25:00.990Z,7.80
2018-07-15T08:26:00.984Z,8.20
2018-07-15T08:27:01.065Z,7.70
2018-07-15T08:28:01.061Z,7.60
2018-07-15T08:29:00.951Z,7.90
2018-07-15T08:30:01.034Z,7.70
2018-07-15T08:31:00.927Z,7.40
2018-07-15T08:32:00.922Z,7.90
2018-07-15T08:33:00.924Z,7.50
2018-07-15T08:34:00.896Z,7.00
2018-07-15T08:35:00.948Z,7.10
2018-07-15T08:36:00.903Z,6.90
2018-07-15T08:37:00.868Z,7.00
2018-07-15T08:38:00.861Z,6.80
2018-07-15T08:39:00.868Z,6.40
2018-07-15T08:40:00.834Z,6.50
2018-07-15T08:41:00.824Z,6.30
2018-07-15T08:42:00.810Z,6.30
2018-07-15T08:43:00.800Z,6.30
2018-07-15T08:44:00.785Z,5.40
2018-07-15T08:45:00.782Z,6.00
2018-07-15T08:46:00.780Z,5.90
2018-07-15T08:47:00.767Z,6.10
2018-07-15T08:48:00.756Z,5.40
2018-07-15T08:49:00.766Z,5.50
2018-07-15T08:50:00.734Z,5.30
2018-07-15T08:51:00.721Z,5.80
2018-07-15T08:52:00.712Z,5.80
2018-07-15T08:53:00.706Z,5.60
2018-07-15T08:54:00.726Z,5.80
2018-07-15T08:55:00.683Z,5.80
2018-07-15T08:56:00.673Z,6.20
2018-07-15T08:57:00.616Z,6.70
2018-07-15T08:58:00.657Z,6.30
2018-07-15T08:59:00.670Z,5.90
2018-07-15T09:00:00.647Z,7.30
2018-07-15T09:01:00.664Z,6.50
2018-07-15T09:02:00.607Z,6.20
2018-07-15T09:03:00.603Z,6.30
2018-07-15T09:04:00.621Z,6.50
2018-07-15T09:05:00.575Z,6.50
2018-07-15T09:06:00.568Z,6.60
2018-07-15T09:07:00.566Z,6.50
2018-07-15T09:08:00.547Z,5.90
2018-07-15T09:09:00.562Z,6.50
2018-07-15T09:10:00.524Z,6.00
2018-07-15T09:11:00.524Z,5.90
2018-07-15T09:12:00.514Z,5.30
2018-07-15T09:13:00.516Z,5.30
2018-07-15T09:14:07.531Z,4.80
2018-07-15T09:15:00.473Z,5.00
2018-07-15T09:16:00.469Z,4.30
2018-07-15T09:17:00.454Z,4.70
2018-07-15T09:18:00.441Z,4.30
2018-07-15T09:19:00.453Z,5.10
2018-07-15T09:20:00.423Z,4.60
2018-07-15T09:21:00.422Z,4.90
2018-07-15T09:22:00.400Z,4.60
2018-07-15T09:23:00.388Z,4.10
2018-07-15T09:24:00.412Z,4.20
2018-07-15T09:25:00.381Z,3.60
2018-07-15T09:26:00.358Z,3.60
2018-07-15T09:27:00.328Z,3.40
2018-07-15T09:28:00.357Z,3.30
2018-07-15T09:29:00.319Z,3.60
2018-07-15T09:30:00.327Z,3.80
2018-07-15T09:31:00.318Z,3.40
2018-07-15T09:32:00.304Z,3.40
2018-07-15T09:33:00.289Z,3.00
2018-07-15T09:34:00.308Z,3.00
2018-07-15T09:35:00.341Z,3.10
2018-07-15T09:36:00.250Z,2.70
2018-07-15T09:37:00.273Z,2.80
2018-07-15T09:38:00.233Z,3.60
2018-07-15T09:39:00.260Z,2.90
2018-07-15T09:40:00.174Z,2.70
2018-07-15T09:41:00.174Z,3.20
2018-07-15T09:42:00.205Z,3.70
2018-07-15T09:43:00.194Z,3.80
2018-07-15T09:44:00.146Z,3.60
2018-07-15T09:45:00.185Z,3.70
2018-07-15T09:46:00.165Z,3.70
2018-07-15T09:47:00.153Z,4.50
2018-07-15T09:48:00.086Z,3.80
2018-07-15T09:49:00.153Z,4.10
2018-07-15T09:50:00.136Z,3.60
2018-07-15T09:51:00.113Z,3.70
2018-07-15T09:52:00.085Z,3.90
2018-07-15T09:53:00.123Z,4.00
2018-07-15T09:54:00.080Z,4.60
2018-07-15T09:55:00.138Z,3.90
2018-07-15T09:56:00.048Z,3.60
2018-07-15T09:57:00.054Z,4.00
2018-07-15T09:58:00.033Z,3.70
2018-07-15T09:59:00.095Z,4.00
2018-07-15T10:00:00.284Z,3.70
2018-07-15T10:00:59.989Z,4.20
2018-07-15T10:01:59.986Z,3.80
2018-07-15T10:02:59.979Z,3.40
2018-07-15T10:03:59.966Z,4.30
2018-07-15T10:04:59.976Z,4.50
2018-07-15T10:05:59.938Z,4.30
2018-07-15T10:06:59.938Z,4.30
2018-07-15T10:07:59.919Z,4.40
2018-07-15T10:08:59.916Z,4.60
2018-07-15T10:09:59.932Z,4.30
2018-07-15T10:10:59.891Z,3.60
2018-07-15T10:11:59.884Z,4.60
2018-07-15T10:12:59.875Z,4.00
2018-07-15T10:13:59.874Z,4.00
2018-07-15T10:14:59.875Z,4.10
2018-07-15T10:15:59.855Z,4.10
2018-07-15T10:16:59.780Z,4.20
2018-07-15T10:17:59.775Z,3.80
2018-07-15T10:18:59.832Z,4.20
2018-07-15T10:19:59.780Z,4.20
2018-07-15T10:20:59.789Z,3.80
2018-07-15T10:21:59.776Z,3.70
2018-07-15T10:22:59.779Z,3.60
2018-07-15T10:23:59.780Z,3.70
2018-07-15T10:24:59.767Z,3.70
2018-07-15T10:25:59.732Z,3.80
2018-07-15T10:26:59.721Z,4.10
2018-07-15T10:27:59.789Z,4.00
2018-07-15T10:28:59.738Z,3.40
2018-07-15T10:29:59.740Z,3.20
2018-07-15T10:30:59.687Z,3.60
2018-07-15T10:31:59.677Z,3.50
2018-07-15T10:32:59.690Z,3.90
2018-07-15T10:33:59.668Z,3.90
2018-07-15T10:34:59.664Z,4.30
2018-07-15T10:35:59.626Z,4.50
2018-07-15T10:36:59.623Z,3.70
2018-07-15T10:37:59.622Z,3.60
2018-07-15T10:38:59.627Z,3.90
2018-07-15T10:39:59.638Z,3.70
2018-07-15T10:40:59.607Z,3.70
2018-07-15T10:41:59.565Z,3.60
2018-07-15T10:42:59.556Z,4.10
2018-07-15T10:43:59.555Z,4.10
2018-07-15T10:44:59.555Z,4.40
2018-07-15T10:45:59.536Z,4.80
2018-07-15T10:46:59.520Z,3.60
2018-07-15T10:47:59.507Z,4.10
2018-07-15T10:48:59.507Z,3.90
2018-07-15T10:49:59.580Z,4.00
2018-07-15T10:50:59.478Z,4.20
2018-07-15T10:51:59.467Z,3.70
2018-07-15T10:52:59.485Z,4.20
2018-07-15T10:53:59.450Z,4.00
2018-07-15T10:54:59.484Z,3.80
2018-07-15T10:55:59.430Z,4.10
2018-07-15T10:56:59.423Z,3.70
2018-07-15T10:57:59.411Z,3.50
2018-07-15T10:58:59.392Z,4.20
2018-07-15T10:59:59.407Z,3.70
2018-07-15T11:00:59.382Z,4.00
2018-07-15T11:01:59.379Z,4.40
2018-07-15T11:02:59.360Z,4.30
2018-07-15T11:03:59.344Z,4.60
2018-07-15T11:04:59.354Z,3.60
2018-07-15T11:05:59.417Z,3.90
2018-07-15T11:06:59.347Z,4.20
2018-07-15T11:07:59.328Z,3.50
2018-07-15T11:08:59.307Z,3.20
2018-07-15T11:09:59.289Z,3.10
2018-07-15T11:10:59.456Z,3.80
2018-07-15T11:11:59.257Z,3.90
2018-07-15T11:12:59.251Z,4.10
2018-07-15T11:13:59.244Z,3.90
2018-07-15T11:14:59.225Z,3.90
2018-07-15T11:15:59.250Z,3.50
2018-07-15T11:16:59.219Z,3.80
2018-07-15T11:17:59.215Z,3.60
2018-07-15T11:18:59.186Z,3.90
2018-07-15T11:19:59.179Z,3.80
2018-07-15T11:20:59.263Z,4.20
2018-07-15T11:21:59.159Z,4.00
2018-07-15T11:22:59.109Z,4.00
2018-07-15T11:23:59.127Z,3.80
2018-07-15T11:24:59.126Z,4.10
2018-07-15T11:25:59.175Z,3.90
2018-07-15T11:26:59.106Z,3.70
2018-07-15T11:27:59.099Z,3.90
2018-07-15T11:28:59.080Z,3.70
2018-07-15T11:29:59.077Z,3.60
2018-07-15T11:30:59.204Z,3.50
2018-07-15T11:31:59.061Z,3.20
2018-07-15T11:32:59.042Z,3.40
2018-07-15T11:33:59.029Z,2.90
2018-07-15T11:34:59.022Z,3.80
2018-07-15T11:35:59.033Z,3.60
2018-07-15T11:36:59.010Z,3.80
2018-07-15T11:37:58.989Z,3.60
2018-07-15T11:38:59.044Z,3.60
2018-07-15T11:39:58.973Z,3.80
2018-07-15T11:40:59.000Z,3.80
2018-07-15T11:41:58.962Z,4.00
2018-07-15T11:42:58.935Z,3.70
2018-07-15T11:43:58.925Z,3.20
2018-07-15T11:44:58.913Z,3.50
2018-07-15T11:45:58.935Z,3.50
2018-07-15T11:46:58.897Z,3.40
2018-07-15T11:47:58.887Z,3.20
2018-07-15T11:48:58.881Z,2.80
2018-07-15T11:49:58.858Z,3.00
2018-07-15T11:50:58.887Z,3.10
2018-07-15T11:51:58.842Z,2.80
2018-07-15T11:52:58.833Z,2.60
2018-07-15T11:53:58.845Z,2.60
2018-07-15T11:54:58.810Z,3.00
2018-07-15T11:56:08.497Z,2.60
2018-07-15T11:56:58.794Z,2.40
2018-07-15T11:57:58.781Z,2.40
2018-07-15T11:58:58.772Z,2.40
2018-07-15T11:59:58.759Z,2.60
2018-07-15T12:00:58.791Z,2.50
2018-07-15T12:01:58.774Z,2.40
2018-07-15T12:02:58.727Z,2.20
2018-07-15T12:03:58.714Z,2.60
2018-07-15T12:04:58.705Z,2.50
2018-07-15T12:05:58.717Z,2.60
2018-07-15T12:06:58.692Z,2.80
2018-07-15T12:07:58.698Z,2.50
2018-07-15T12:08:58.727Z,2.70
2018-07-15T12:09:58.772Z,2.30
2018-07-15T12:10:58.746Z,2.60
2018-07-15T12:11:58.661Z,2.60
2018-07-15T12:12:58.631Z,2.90
2018-07-15T12:13:58.618Z,2.30
2018-07-15T12:14:58.619Z,2.40
2018-07-15T12:15:58.673Z,2.60
2018-07-15T12:16:58.587Z,2.70
2018-07-15T12:17:58.568Z,2.40
2018-07-15T12:18:58.558Z,2.60
2018-07-15T12:19:58.558Z,2.50
2018-07-15T12:20:58.556Z,3.00
2018-07-15T12:21:58.510Z,2.60
2018-07-15T12:22:58.523Z,2.80
2018-07-15T12:23:58.539Z,2.60
2018-07-15T12:24:58.510Z,2.50
2018-07-15T12:25:58.501Z,2.60
2018-07-15T12:26:58.507Z,2.40
2018-07-15T12:27:58.475Z,2.80
2018-07-15T12:28:58.459Z,2.50
2018-07-15T12:29:58.452Z,2.50
2018-07-15T12:30:58.437Z,2.60
2018-07-15T12:31:58.456Z,2.30
2018-07-15T12:32:58.416Z,2.70
2018-07-15T12:33:58.407Z,2.70
2018-07-15T12:34:58.406Z,2.40
2018-07-15T12:35:58.383Z,2.50
2018-07-15T12:36:58.402Z,2.80
2018-07-15T12:37:58.370Z,2.40
2018-07-15T12:38:58.360Z,2.50
2018-07-15T12:39:58.348Z,2.50
2018-07-15T12:40:58.344Z,2.70
2018-07-15T12:41:58.363Z,2.50
2018-07-15T12:42:58.312Z,2.50
2018-07-15T12:43:58.329Z,2.30
2018-07-15T12:44:58.259Z,2.80
2018-07-15T12:45:58.281Z,3.20
2018-07-15T12:46:58.300Z,2.50
2018-07-15T12:47:58.213Z,2.30
2018-07-15T12:48:58.255Z,3.70
2018-07-15T12:49:58.239Z,3.70
2018-07-15T12:50:58.229Z,2.20
2018-07-15T12:51:58.308Z,2.80
2018-07-15T12:52:58.214Z,2.40
2018-07-15T12:53:58.198Z,2.70
2018-07-15T12:54:58.201Z,2.50
2018-07-15T12:55:58.186Z,3.30
2018-07-15T12:56:58.224Z,2.30
2018-07-15T12:57:58.116Z,2.40
2018-07-15T12:58:58.141Z,2.40
2018-07-15T12:59:58.146Z,2.30
2018-07-15T13:00:58.132Z,2.40
2018-07-15T13:01:58.132Z,2.00
2018-07-15T13:02:58.141Z,2.30
2018-07-15T13:03:58.093Z,2.30
2018-07-15T13:04:58.084Z,2.20
2018-07-15T13:05:58.077Z,2.20
2018-07-15T13:06:58.259Z,2.50
2018-07-15T13:07:58.055Z,2.00
2018-07-15T13:08:58.158Z,2.00
2018-07-15T13:09:58.033Z,2.10
2018-07-15T13:10:58.020Z,2.20
2018-07-15T13:11:58.039Z,2.20
2018-07-15T13:12:58.004Z,1.90
2018-07-15T13:13:57.986Z,2.00
2018-07-15T13:14:57.986Z,2.00
2018-07-15T13:15:57.973Z,2.10
2018-07-15T13:16:57.986Z,2.10
2018-07-15T13:17:57.948Z,2.00
2018-07-15T13:18:57.935Z,1.80
2018-07-15T13:19:57.935Z,2.00
2018-07-15T13:20:57.922Z,1.90
2018-07-15T13:21:57.915Z,1.90
2018-07-15T13:22:57.896Z,5.80
2018-07-15T13:23:57.887Z,4.80
2018-07-15T13:24:57.874Z,18.20
2018-07-15T13:25:57.867Z,1.80
2018-07-15T13:26:57.912Z,13.30
2018-07-15T13:27:57.848Z,1.90